Time;durP1;ratioP1;P1;durP2;ratioP2;P2;SDS_P1;SDS_P2;PMS_P1;PMS_P2;Temp;Humidity;BMP_temperature;BMP_pressure;BME280_temperature;BME280_humidity;BME280_pressure;Samples;Min_cycle;Max_cycle;Signal;HPM_P1;HPM_P2
2021/11/08 00:01:56;;;;;;;0.70;0.50;;;9.70;99.90;;;;;;6208699;23;20189;-92
2021/11/08 00:04:22;;;;;;;3.70;1.50;;;9.70;99.90;;;;;;6209413;23;20644;-92
2021/11/08 00:06:51;;;;;;;4.10;0.70;;;9.80;99.90;;;;;;6184791;22;20162;-93
2021/11/08 00:09:17;;;;;;;5.83;0.83;;;9.80;99.90;;;;;;6185368;23;20161;-92
2021/11/08 00:11:43;;;;;;;4.33;0.93;;;9.90;99.90;;;;;;6210074;23;20261;-92
2021/11/08 00:14:12;;;;;;;5.13;0.73;;;9.90;99.90;;;;;;6187578;23;20212;-93
2021/11/08 00:22:02;;;;;;;3.30;0.80;;;10.00;99.90;;;;;;6194781;22;20157;-93
2021/11/08 00:24:30;;;;;;;1.23;0.70;;;10.00;99.90;;;;;;6188269;23;20212;-90
2021/11/08 00:26:57;;;;;;;0.17;0.17;;;9.90;99.90;;;;;;6187672;23;20263;-93
2021/11/08 00:29:22;;;;;;;0.63;0.50;;;9.80;99.90;;;;;;6187575;23;20200;-91
2021/11/08 00:31:48;;;;;;;0.83;0.57;;;9.70;99.90;;;;;;6187857;23;20197;-91
2021/11/08 00:34:14;;;;;;;0.37;0.37;;;9.60;99.90;;;;;;6238505;22;20204;-90
2021/11/08 00:36:40;;;;;;;2.57;1.13;;;9.50;99.90;;;;;;6213278;23;20173;-91
2021/11/08 00:39:06;;;;;;;1.40;1.23;;;9.60;99.90;;;;;;6238265;22;20955;-92
2021/11/08 00:41:33;;;;;;;5.80;0.70;;;9.70;99.90;;;;;;6183909;23;20225;-93
2021/11/08 00:43:59;;;;;;;0.10;0.10;;;9.70;99.90;;;;;;6209216;23;20193;-92
2021/11/08 00:46:25;;;;;;;2.47;0.83;;;9.70;99.90;;;;;;6236138;22;20193;-93
2021/11/08 00:48:51;;;;;;;3.57;1.10;;;9.60;99.90;;;;;;6163201;22;20203;-91
2021/11/08 00:51:18;;;;;;;10.73;1.00;;;9.70;99.90;;;;;;6239420;23;20161;-92
2021/11/08 00:53:45;;;;;;;2.47;0.93;;;9.70;99.90;;;;;;6186926;23;20308;-93
2021/11/08 00:56:16;;;;;;;1.50;1.40;;;9.70;99.90;;;;;;6238753;22;20204;-92
2021/11/08 00:58:44;;;;;;;3.50;1.13;;;9.60;99.90;;;;;;6188655;23;20204;-91
2021/11/08 01:01:18;;;;;;;6.90;0.40;;;9.40;99.90;;;;;;6163106;23;20197;-91
2021/11/08 01:03:45;;;;;;;2.73;0.50;;;9.40;99.90;;;;;;6212229;22;20477;-92
2021/11/08 01:06:12;;;;;;;0.50;0.30;;;9.30;99.90;;;;;;6213101;23;20161;-91
2021/11/08 01:08:40;;;;;;;0.83;0.60;;;9.30;99.90;;;;;;6187721;23;20193;-92
2021/11/08 01:11:06;;;;;;;0.50;0.50;;;9.20;99.90;;;;;;6212257;23;20658;-92
2021/11/08 01:13:32;;;;;;;10.97;1.30;;;9.10;99.90;;;;;;6211862;23;20215;-92
2021/11/08 01:15:58;;;;;;;4.73;0.83;;;9.10;99.90;;;;;;6162305;22;20158;-93
2021/11/08 01:18:25;;;;;;;3.10;0.70;;;9.10;99.90;;;;;;6187386;23;20165;-92
2021/11/08 01:20:51;;;;;;;4.43;0.90;;;9.10;99.90;;;;;;6185967;23;20526;-92
2021/11/08 01:23:27;;;;;;;3.30;0.67;;;9.00;99.90;;;;;;6186570;23;20212;-92
2021/11/08 01:26:09;;;;;;;9.67;0.90;;;9.00;99.90;;;;;;6211975;23;20205;-92
2021/11/08 01:28:38;;;;;;;6.73;1.17;;;8.90;99.90;;;;;;6238569;22;20199;-92
2021/11/08 01:31:06;;;;;;;4.53;0.80;;;8.90;99.90;;;;;;6211807;22;20299;-90
2021/11/08 01:33:33;;;;;;;0.50;0.47;;;8.90;99.90;;;;;;6212946;23;20153;-91
2021/11/08 01:38:48;;;;;;;19.70;1.57;;;9.00;99.90;;;;;;6238502;22;20192;-91
2021/11/08 01:41:24;;;;;;;0.80;0.33;;;9.00;99.90;;;;;;6212359;23;20197;-92
2021/11/08 01:43:51;;;;;;;0.23;0.20;;;9.10;99.90;;;;;;6210187;23;20197;-91
2021/11/08 01:46:18;;;;;;;0.43;0.43;;;9.50;99.90;;;;;;6209868;23;20225;-90
2021/11/08 01:48:46;;;;;;;0.53;0.53;;;9.50;99.90;;;;;;6186199;22;20161;-91
2021/11/08 01:51:12;;;;;;;0.50;0.30;;;9.40;99.90;;;;;;6236891;23;20153;-92
2021/11/08 01:53:38;;;;;;;22.17;1.23;;;9.30;99.90;;;;;;6209939;23;20193;-92
2021/11/08 01:56:05;;;;;;;2.20;1.00;;;9.30;99.90;;;;;;6185362;23;20201;-92
2021/11/08 01:58:33;;;;;;;1.10;0.53;;;9.20;99.90;;;;;;6186703;23;20197;-92
2021/11/08 02:01:01;;;;;;;3.30;0.30;;;9.10;99.90;;;;;;6211670;22;20158;-91
2021/11/08 02:03:27;;;;;;;0.93;0.70;;;9.10;99.90;;;;;;6187576;23;20171;-91
2021/11/08 02:05:54;;;;;;;2.03;0.57;;;9.10;99.90;;;;;;6211736;23;20213;-91
2021/11/08 02:08:22;;;;;;;8.03;0.50;;;9.10;99.90;;;;;;6212217;23;20200;-90
2021/11/08 02:10:50;;;;;;;9.93;0.70;;;9.10;99.90;;;;;;6211537;23;20197;-91
2021/11/08 02:13:18;;;;;;;4.63;0.60;;;9.10;99.90;;;;;;6212164;23;20193;-91
2021/11/08 02:15:43;;;;;;;2.10;1.37;;;9.00;99.90;;;;;;6213730;22;20168;-92
2021/11/08 02:18:11;;;;;;;0.57;0.57;;;9.00;99.90;;;;;;6214306;23;20154;-91
2021/11/08 02:20:41;;;;;;;0.20;0.20;;;9.00;99.90;;;;;;6213478;23;20209;-91
2021/11/08 02:23:07;;;;;;;0.63;0.63;;;9.00;99.90;;;;;;6213691;23;20876;-91
2021/11/08 02:25:36;;;;;;;0.20;0.20;;;8.90;99.90;;;;;;6188402;23;20728;-92
2021/11/08 02:28:04;;;;;;;0.80;0.80;;;8.90;99.90;;;;;;6239203;22;20197;-92
2021/11/08 02:30:31;;;;;;;2.50;1.10;;;8.90;99.90;;;;;;6240168;23;20208;-92
2021/11/08 02:32:59;;;;;;;2.00;0.30;;;8.90;99.90;;;;;;6189048;23;20276;-90
2021/11/08 02:35:25;;;;;;;12.27;1.33;;;8.90;99.90;;;;;;6188414;23;20193;-92
2021/11/08 02:37:51;;;;;;;3.47;1.53;;;9.00;99.90;;;;;;6213675;23;20197;-92
2021/11/08 02:40:21;;;;;;;5.40;1.80;;;9.00;99.90;;;;;;6212995;23;20243;-91
2021/11/08 02:42:50;;;;;;;2.60;1.10;;;9.00;99.90;;;;;;6240514;22;20165;-91
2021/11/08 02:45:24;;;;;;;5.60;2.10;;;9.10;99.90;;;;;;6189888;23;20185;-91
2021/11/08 02:47:51;;;;;;;0.70;0.40;;;9.20;99.90;;;;;;6239645;22;20196;-92
2021/11/08 02:50:19;;;;;;;8.53;0.70;;;9.20;99.90;;;;;;6213948;23;20215;-92
2021/11/08 02:52:47;;;;;;;3.57;0.60;;;9.30;99.90;;;;;;6213565;23;20486;-91
2021/11/08 02:55:16;;;;;;;0.40;0.40;;;9.30;99.90;;;;;;6187904;23;20204;-91
2021/11/08 02:57:42;;;;;;;5.83;1.00;;;9.40;99.90;;;;;;6239557;22;20161;-88
2021/11/08 03:00:12;;;;;;;0.33;0.33;;;9.50;99.90;;;;;;6187520;23;20162;-91
2021/11/08 03:02:40;;;;;;;0.80;0.80;;;9.50;99.90;;;;;;6239814;22;20255;-92
2021/11/08 03:05:07;;;;;;;0.80;0.80;;;9.50;99.90;;;;;;6213524;23;20217;-92
2021/11/08 03:07:37;;;;;;;1.13;1.03;;;9.50;99.90;;;;;;6188831;23;20196;-91
2021/11/08 03:10:07;;;;;;;0.33;0.30;;;9.50;99.90;;;;;;6162309;22;20581;-91
2021/11/08 03:12:36;;;;;;;0.10;0.10;;;9.50;99.90;;;;;;6210346;23;20146;-92
2021/11/08 03:15:10;;;;;;;2.07;0.63;;;9.50;99.90;;;;;;6209205;23;20643;-93
2021/11/08 03:17:41;;;;;;;6.10;1.03;;;9.60;99.90;;;;;;6239660;22;20636;-92
2021/11/08 03:20:11;;;;;;;3.90;0.43;;;9.60;99.90;;;;;;6211823;23;20209;-92
2021/11/08 03:22:39;;;;;;;0.00;0.00;;;9.70;99.90;;;;;;6209889;23;20196;-93
2021/11/08 03:25:16;;;;;;;0.67;0.27;;;9.60;99.90;;;;;;6210186;22;20201;-91
2021/11/08 03:27:55;;;;;;;0.10;0.10;;;9.60;99.90;;;;;;6167338;23;20153;-90
2021/11/08 03:30:35;;;;;;;1.27;0.27;;;9.60;99.90;;;;;;6191184;23;20184;-93
2021/11/08 03:33:02;;;;;;;0.10;0.10;;;9.50;99.90;;;;;;6212629;23;20189;-93
2021/11/08 03:35:29;;;;;;;0.20;0.20;;;9.50;99.90;;;;;;6239515;22;20197;-92
2021/11/08 03:37:56;;;;;;;4.13;0.83;;;9.50;99.90;;;;;;6187924;23;20193;-91
2021/11/08 03:40:26;;;;;;;1.23;0.47;;;9.50;99.90;;;;;;6237110;22;20288;-91
2021/11/08 03:42:54;;;;;;;5.90;0.43;;;9.50;99.90;;;;;;6235877;22;20227;-93
2021/11/08 03:45:24;;;;;;;0.50;0.50;;;9.50;99.90;;;;;;6186688;23;20193;-94
2021/11/08 03:47:50;;;;;;;2.43;0.40;;;9.40;99.90;;;;;;6238786;22;20200;-94
2021/11/08 03:50:17;;;;;;;0.10;0.10;;;9.40;99.90;;;;;;6213435;23;20247;-91
2021/11/08 03:52:43;;;;;;;0.00;0.00;;;9.40;99.90;;;;;;6188610;23;20203;-91
2021/11/08 03:55:11;;;;;;;0.83;0.57;;;9.40;99.90;;;;;;6239324;22;20291;-92
2021/11/08 03:57:37;;;;;;;0.27;0.27;;;9.50;99.90;;;;;;6239782;23;20157;-91
2021/11/08 04:00:06;;;;;;;2.53;0.67;;;9.50;99.90;;;;;;6212749;23;20199;-91
2021/11/08 04:02:31;;;;;;;1.83;0.77;;;9.50;99.90;;;;;;6213026;23;20637;-93
2021/11/08 04:04:59;;;;;;;0.60;0.37;;;9.50;99.90;;;;;;6212967;23;20201;-92
2021/11/08 04:07:26;;;;;;;1.20;0.73;;;9.50;99.90;;;;;;6188406;23;20189;-92
2021/11/08 04:09:52;;;;;;;0.40;0.40;;;9.50;99.90;;;;;;6213070;22;20542;-91
2021/11/08 04:12:19;;;;;;;1.33;0.20;;;9.50;99.90;;;;;;6212751;23;20157;-91
2021/11/08 04:14:44;;;;;;;0.90;0.90;;;9.40;99.90;;;;;;6212822;23;20198;-92
2021/11/08 04:17:11;;;;;;;4.97;0.97;;;9.40;99.90;;;;;;6187104;23;20197;-91
2021/11/08 04:19:37;;;;;;;4.43;1.37;;;9.40;99.90;;;;;;6187045;23;20185;-93
2021/11/08 04:22:04;;;;;;;9.90;0.83;;;9.40;99.90;;;;;;6212422;22;20529;-93
2021/11/08 04:24:30;;;;;;;0.20;0.20;;;9.40;99.90;;;;;;6188196;23;20181;-91
2021/11/08 04:26:56;;;;;;;1.27;1.03;;;9.40;99.90;;;;;;6238783;22;20265;-93
2021/11/08 04:29:23;;;;;;;13.57;0.87;;;9.40;99.90;;;;;;6187228;23;20193;-92
2021/11/08 04:31:50;;;;;;;2.30;0.47;;;9.40;99.90;;;;;;6212432;23;20193;-92
2021/11/08 04:34:23;;;;;;;5.23;1.53;;;9.50;99.90;;;;;;6238474;22;20189;-93
2021/11/08 04:42:11;;;;;;;1.03;0.70;;;9.60;99.90;;;;;;6215627;23;20197;-92
2021/11/08 04:55:40;;;;;;;0.67;0.57;;;9.40;99.90;;;;;;6238739;22;20205;-93
2021/11/08 05:25:28;;;;;;;1.93;0.90;;;9.80;99.90;;;;;;6213371;23;20200;-92
2021/11/08 05:30:36;;;;;;;2.53;0.60;;;9.70;99.90;;;;;;6215899;23;20160;-92
2021/11/08 05:33:02;;;;;;;1.70;1.53;;;9.70;99.90;;;;;;6211796;23;20935;-92
2021/11/08 05:35:29;;;;;;;5.93;1.60;;;9.60;99.90;;;;;;6161982;23;20197;-91
2021/11/08 05:37:56;;;;;;;3.00;1.00;;;9.60;99.90;;;;;;6186988;23;20197;-91
2021/11/08 05:40:34;;;;;;;1.63;0.40;;;9.50;99.90;;;;;;6211690;23;20476;-91
2021/11/08 05:43:02;;;;;;;7.20;2.43;;;9.50;99.90;;;;;;6238183;22;20223;-91
2021/11/08 05:45:32;;;;;;;2.00;0.33;;;9.40;99.90;;;;;;6212091;23;20185;-92
2021/11/08 05:47:59;;;;;;;3.17;0.93;;;9.40;99.90;;;;;;6215354;23;20205;-90
2021/11/08 05:50:29;;;;;;;0.70;0.37;;;9.40;99.90;;;;;;6215036;23;20197;-92
2021/11/08 05:52:56;;;;;;;6.63;0.80;;;9.40;99.90;;;;;;6215596;23;20192;-91
2021/11/08 05:55:31;;;;;;;3.20;0.43;;;9.40;99.90;;;;;;6215656;23;20197;-92
2021/11/08 05:58:10;;;;;;;0.73;0.60;;;9.50;99.90;;;;;;6215561;22;20152;-92
2021/11/08 06:50:04;;;;;;;1.20;0.73;;;9.80;99.90;;;;;;6240230;22;20319;-94
2021/11/08 06:52:31;;;;;;;1.07;0.97;;;9.80;99.90;;;;;;6191173;23;20539;-93
2021/11/08 06:55:01;;;;;;;7.67;0.70;;;9.80;99.90;;;;;;6215886;22;20219;-94
2021/11/08 06:57:31;;;;;;;3.60;0.73;;;9.80;99.90;;;;;;6243118;23;20145;-94
2021/11/08 06:59:58;;;;;;;1.23;0.33;;;9.80;99.90;;;;;;6212411;23;20197;-93
2021/11/08 07:02:25;;;;;;;2.03;1.20;;;9.80;99.90;;;;;;6215650;23;20194;-92
2021/11/08 07:04:54;;;;;;;1.77;1.30;;;9.90;99.90;;;;;;6215209;23;20547;-93
2021/11/08 07:07:21;;;;;;;1.00;1.00;;;9.90;99.90;;;;;;6239360;22;20205;-93
2021/11/08 07:09:47;;;;;;;2.20;1.03;;;9.90;99.90;;;;;;6236961;22;20164;-91
2021/11/08 07:12:13;;;;;;;7.43;0.87;;;10.00;99.90;;;;;;6211655;23;20150;-94
2021/11/08 07:14:39;;;;;;;1.77;1.17;;;10.00;99.90;;;;;;6185614;23;20200;-94
2021/11/08 07:17:06;;;;;;;4.67;1.57;;;10.00;99.90;;;;;;6210006;23;20197;-93
2021/11/08 07:19:32;;;;;;;4.00;0.63;;;10.10;99.90;;;;;;6210461;23;20197;-93
2021/11/08 07:21:58;;;;;;;1.37;0.60;;;10.10;99.90;;;;;;6155135;23;20166;-93
2021/11/08 07:24:24;;;;;;;4.53;0.50;;;10.10;99.90;;;;;;6208266;23;20182;-92
2021/11/08 07:26:49;;;;;;;1.73;1.10;;;10.10;99.90;;;;;;6182672;23;20197;-92
2021/11/08 07:29:16;;;;;;;10.53;1.00;;;10.10;99.90;;;;;;6182426;23;20202;-92
2021/11/08 07:31:43;;;;;;;5.63;1.03;;;10.10;99.90;;;;;;6208918;23;20212;-92
2021/11/08 07:34:10;;;;;;;2.50;0.77;;;10.10;99.90;;;;;;6157930;23;20232;-93
2021/11/08 07:36:36;;;;;;;6.80;0.80;;;10.20;99.90;;;;;;6180791;23;20155;-93
2021/11/08 07:39:04;;;;;;;0.70;0.70;;;10.10;99.90;;;;;;6180465;23;20770;-94
2021/11/08 07:41:30;;;;;;;7.07;1.60;;;10.20;99.90;;;;;;6181995;23;21043;-90
2021/11/08 07:43:56;;;;;;;4.17;0.63;;;10.30;99.90;;;;;;6186248;23;20197;-95
2021/11/08 07:46:22;;;;;;;0.20;0.20;;;10.30;99.90;;;;;;6185441;23;20206;-95
2021/11/08 07:48:48;;;;;;;7.77;0.97;;;10.30;99.90;;;;;;6157080;23;20181;-92
2021/11/08 07:51:16;;;;;;;2.77;1.37;;;10.30;99.90;;;;;;6135366;23;20200;-93
2021/11/08 07:53:43;;;;;;;3.50;1.17;;;10.40;99.90;;;;;;6192931;23;20186;-91
2021/11/08 07:56:09;;;;;;;6.03;0.90;;;10.40;99.90;;;;;;6230316;23;20201;-91
2021/11/08 07:58:36;;;;;;;1.47;0.97;;;10.40;99.90;;;;;;6227553;22;20277;-94
2021/11/08 08:01:03;;;;;;;1.87;0.63;;;10.40;99.90;;;;;;6182559;23;20162;-93
2021/11/08 08:03:29;;;;;;;1.80;1.07;;;10.50;99.90;;;;;;6158700;23;20165;-93
2021/11/08 08:05:57;;;;;;;0.63;0.20;;;10.40;99.90;;;;;;6132952;23;20206;-91
2021/11/08 08:08:24;;;;;;;6.47;1.00;;;10.40;99.90;;;;;;6181505;23;20202;-90
2021/11/08 08:10:51;;;;;;;4.33;1.03;;;10.40;99.90;;;;;;6132670;23;20198;-91
2021/11/08 08:13:20;;;;;;;2.30;0.70;;;10.50;99.90;;;;;;6157913;23;20269;-90
2021/11/08 08:15:47;;;;;;;9.77;1.13;;;10.50;99.90;;;;;;6182160;23;20916;-90
2021/11/08 08:18:13;;;;;;;4.97;1.27;;;10.50;99.90;;;;;;6182882;23;20513;-91
2021/11/08 08:20:40;;;;;;;2.97;1.00;;;10.60;99.90;;;;;;6217647;23;20312;-92
2021/11/08 08:23:06;;;;;;;8.47;1.87;;;10.60;99.90;;;;;;6208468;23;20211;-90
2021/11/08 08:25:32;;;;;;;1.07;0.60;;;10.70;99.90;;;;;;6184278;23;20289;-91
2021/11/08 08:27:58;;;;;;;1.03;0.83;;;10.80;99.90;;;;;;6161260;22;20174;-91
2021/11/08 08:30:26;;;;;;;4.47;0.93;;;10.80;99.90;;;;;;6187353;23;20176;-92
2021/11/08 08:32:53;;;;;;;6.03;0.77;;;10.90;99.90;;;;;;6236541;22;20855;-91
2021/11/08 08:35:18;;;;;;;3.63;1.80;;;10.90;99.90;;;;;;6162371;23;20197;-92
2021/11/08 08:37:44;;;;;;;31.83;2.27;;;10.90;99.90;;;;;;6211844;23;20631;-91
2021/11/08 08:40:11;;;;;;;1.70;0.97;;;11.00;99.90;;;;;;6186581;23;20193;-92
2021/11/08 08:42:36;;;;;;;2.27;0.33;;;11.00;99.90;;;;;;6211876;23;20166;-92
2021/11/08 08:45:04;;;;;;;0.10;0.10;;;11.00;99.90;;;;;;6212589;23;20209;-91
2021/11/08 08:47:30;;;;;;;1.50;0.13;;;10.70;99.90;;;;;;6240964;22;20201;-92
2021/11/08 08:49:56;;;;;;;0.10;0.10;;;10.50;99.90;;;;;;6215627;23;20212;-90
2021/11/08 08:52:23;;;;;;;0.10;0.10;;;10.40;99.90;;;;;;6190735;23;20644;-95
2021/11/08 08:54:49;;;;;;;3.10;1.43;;;10.30;99.90;;;;;;6212822;22;20169;-95
2021/11/08 08:57:15;;;;;;;0.37;0.37;;;10.30;99.90;;;;;;6213717;23;20173;-94
2021/11/08 08:59:42;;;;;;;0.10;0.10;;;10.30;99.90;;;;;;6238602;22;20533;-96
2021/11/08 09:02:10;;;;;;;4.63;1.03;;;10.40;99.90;;;;;;6239254;22;20204;-94
2021/11/08 09:04:37;;;;;;;0.40;0.40;;;10.50;99.90;;;;;;6239926;22;20210;-96
2021/11/08 09:07:03;;;;;;;3.40;0.57;;;10.60;99.90;;;;;;6189782;22;20268;-94
2021/11/08 09:09:30;;;;;;;0.30;0.30;;;10.60;99.90;;;;;;6212971;23;20165;-94
2021/11/08 09:11:55;;;;;;;0.87;0.40;;;10.70;99.90;;;;;;6211802;23;20224;-93
2021/11/08 09:14:21;;;;;;;1.17;1.07;;;10.80;99.90;;;;;;6186103;23;20193;-93
2021/11/08 09:16:47;;;;;;;2.37;0.67;;;10.90;99.90;;;;;;6187286;23;20649;-92
2021/11/08 09:19:13;;;;;;;0.83;0.57;;;11.00;99.90;;;;;;6187318;23;20189;-94
2021/11/08 09:21:40;;;;;;;1.43;0.57;;;11.10;99.90;;;;;;6211928;23;20667;-93
2021/11/08 09:24:06;;;;;;;9.53;1.20;;;11.40;99.90;;;;;;6187015;23;20209;-92
2021/11/08 09:26:34;;;;;;;11.80;1.23;;;11.70;99.90;;;;;;6237426;22;20232;-92
2021/11/08 09:29:00;;;;;;;5.03;1.17;;;11.90;99.90;;;;;;6238313;22;20561;-93
2021/11/08 09:31:26;;;;;;;0.23;0.20;;;11.80;99.90;;;;;;6210834;23;20200;-92
2021/11/08 09:33:58;;;;;;;0.53;0.33;;;11.80;99.90;;;;;;6238429;22;20188;-93
2021/11/08 09:36:24;;;;;;;0.30;0.30;;;11.70;99.90;;;;;;6211986;23;20233;-93
2021/11/08 09:38:54;;;;;;;0.20;0.20;;;11.70;99.90;;;;;;6211584;23;20208;-94
2021/11/08 09:41:22;;;;;;;0.00;0.00;;;11.60;99.90;;;;;;6210604;23;20259;-94
2021/11/08 09:43:52;;;;;;;0.90;0.40;;;11.60;99.90;;;;;;6210566;23;20272;-94
2021/11/08 09:46:18;;;;;;;3.20;0.50;;;11.80;99.90;;;;;;6237935;22;20201;-93
2021/11/08 09:48:44;;;;;;;0.10;0.10;;;11.90;99.90;;;;;;6213502;22;20903;-96
2021/11/08 09:51:13;;;;;;;2.27;0.60;;;12.00;99.90;;;;;;6216404;23;20154;-92
2021/11/08 09:53:39;;;;;;;0.20;0.20;;;12.10;99.90;;;;;;6212009;23;20208;-93
2021/11/08 09:56:07;;;;;;;0.60;0.60;;;12.40;99.90;;;;;;6237730;22;20295;-94
2021/11/08 09:58:35;;;;;;;0.93;0.17;;;12.60;99.90;;;;;;6185371;23;20189;-93
2021/11/08 10:01:07;;;;;;;0.60;0.60;;;12.60;99.90;;;;;;6187369;22;20527;-91
2021/11/08 10:03:33;;;;;;;5.50;1.30;;;12.40;99.90;;;;;;6213550;23;20150;-92
2021/11/08 10:06:01;;;;;;;1.47;0.90;;;12.20;99.90;;;;;;6186771;23;20202;-93
2021/11/08 10:08:30;;;;;;;1.97;0.47;;;11.90;99.90;;;;;;6211228;23;20251;-93
2021/11/08 10:10:59;;;;;;;2.53;0.77;;;11.80;99.90;;;;;;6212637;23;20255;-93
2021/11/08 10:13:29;;;;;;;1.07;0.80;;;11.60;99.90;;;;;;6226863;23;20192;-91
2021/11/08 10:16:02;;;;;;;0.73;0.73;;;11.20;99.90;;;;;;6233537;22;20149;-93
2021/11/08 10:18:29;;;;;;;1.63;0.83;;;11.00;99.90;;;;;;6213477;23;20150;-95
2021/11/08 10:21:05;;;;;;;6.93;1.03;;;10.80;99.90;;;;;;6213710;23;20205;-94
2021/11/08 10:23:36;;;;;;;0.40;0.40;;;10.80;99.90;;;;;;6237063;22;20212;-92
2021/11/08 10:26:16;;;;;;;7.47;1.07;;;10.90;99.90;;;;;;6185853;23;20587;-89
2021/11/08 10:28:42;;;;;;;4.63;0.63;;;10.90;99.90;;;;;;6211009;23;20246;-94
2021/11/08 10:31:15;;;;;;;7.37;1.40;;;11.00;99.90;;;;;;6234092;22;20224;-91
2021/11/08 10:33:43;;;;;;;4.83;0.97;;;11.10;99.90;;;;;;6237351;23;20206;-92
2021/11/08 10:36:10;;;;;;;14.23;1.63;;;11.30;99.90;;;;;;6199102;23;20185;-92
2021/11/08 10:38:37;;;;;;;1.50;0.67;;;11.50;99.90;;;;;;6239876;22;20197;-92
2021/11/08 10:41:11;;;;;;;11.23;0.90;;;11.60;99.90;;;;;;6214124;23;20228;-95
2021/11/08 10:43:40;;;;;;;8.63;1.20;;;11.60;99.90;;;;;;6239424;22;20189;-91
2021/11/08 10:46:13;;;;;;;5.17;0.50;;;11.70;99.90;;;;;;6213399;22;20228;-92
2021/11/08 10:48:49;;;;;;;26.53;2.77;;;11.70;99.90;;;;;;6213688;23;20184;-90
2021/11/08 10:51:17;;;;;;;0.67;0.67;;;11.90;99.90;;;;;;6239923;23;20251;-92
2021/11/08 10:53:59;;;;;;;3.60;0.60;;;12.00;99.90;;;;;;6213266;23;20197;-93
2021/11/08 10:56:35;;;;;;;4.23;0.97;;;12.00;99.90;;;;;;6240202;22;20208;-92
2021/11/08 10:59:07;;;;;;;2.20;0.83;;;12.00;99.90;;;;;;6239932;22;20197;-91
2021/11/08 11:01:39;;;;;;;6.67;1.23;;;11.90;99.90;;;;;;6239238;22;20242;-94
2021/11/08 11:04:06;;;;;;;4.30;1.50;;;11.90;99.90;;;;;;6213183;22;20194;-92
2021/11/08 11:06:41;;;;;;;8.03;3.30;;;12.00;99.90;;;;;;6213880;23;20195;-93
2021/11/08 11:09:30;;;;;;;3.20;2.10;;;12.20;99.90;;;;;;6239312;22;20320;-91
2021/11/08 11:12:12;;;;;;;5.97;2.63;;;12.50;99.90;;;;;;6212109;23;20232;-93
2021/11/08 11:14:50;;;;;;;4.90;0.50;;;12.70;99.90;;;;;;6211338;23;20203;-94
2021/11/08 11:17:19;;;;;;;12.93;1.27;;;12.70;99.90;;;;;;6211182;23;20714;-90
2021/11/08 11:19:45;;;;;;;5.53;1.33;;;12.60;99.90;;;;;;6210577;23;20189;-91
2021/11/08 11:22:16;;;;;;;5.67;1.17;;;12.60;99.90;;;;;;6211526;23;20224;-90
2021/11/08 11:24:50;;;;;;;2.43;0.93;;;12.70;99.90;;;;;;6183504;23;20272;-92
2021/11/08 11:27:48;;;;;;;4.50;1.37;;;12.70;99.90;;;;;;6237951;23;20188;-91
2021/11/08 11:30:14;;;;;;;3.33;0.90;;;12.70;99.90;;;;;;6212361;23;20181;-91
2021/11/08 11:32:40;;;;;;;6.37;0.67;;;12.70;99.90;;;;;;6210905;23;20689;-92
2021/11/08 11:35:13;;;;;;;2.83;1.33;;;12.50;99.90;;;;;;6210544;23;20204;-91
2021/11/08 11:37:38;;;;;;;3.67;1.20;;;12.40;99.90;;;;;;6237544;22;20205;-90
2021/11/08 11:40:09;;;;;;;0.57;0.50;;;12.30;99.90;;;;;;6237680;22;20211;-90
2021/11/08 11:42:51;;;;;;;5.60;0.87;;;12.20;99.90;;;;;;6212639;23;20152;-93
2021/11/08 11:45:18;;;;;;;5.20;1.03;;;12.10;99.90;;;;;;6239195;23;20200;-87
2021/11/08 11:47:54;;;;;;;5.87;1.27;;;12.10;99.90;;;;;;6211384;23;20201;-87
2021/11/08 11:50:21;;;;;;;4.27;1.73;;;12.10;99.90;;;;;;6214637;23;20188;-88
2021/11/08 11:52:47;;;;;;;5.17;0.80;;;12.00;99.90;;;;;;6187976;23;21018;-86
2021/11/08 11:55:13;;;;;;;4.60;0.53;;;11.90;99.90;;;;;;6213027;23;20252;-89
2021/11/08 11:57:40;;;;;;;2.93;1.00;;;11.90;99.90;;;;;;6240848;23;20169;-88
2021/11/08 12:00:06;;;;;;;5.57;1.37;;;11.90;99.90;;;;;;6214057;23;20193;-88
2021/11/08 12:02:32;;;;;;;3.40;1.07;;;11.90;99.90;;;;;;6209866;23;20524;-88
2021/11/08 12:04:58;;;;;;;5.10;0.77;;;11.90;99.90;;;;;;6231434;22;20715;-88
2021/11/08 12:07:24;;;;;;;0.27;0.27;;;11.90;99.90;;;;;;6186649;23;20586;-89
2021/11/08 12:09:50;;;;;;;11.80;0.57;;;12.00;99.90;;;;;;6150351;22;20472;-87
2021/11/08 12:12:26;;;;;;;6.50;2.10;;;12.00;99.90;;;;;;6162845;23;20505;-88
2021/11/08 12:15:07;;;;;;;2.43;0.83;;;12.00;99.90;;;;;;6240089;22;20212;-88
2021/11/08 12:17:40;;;;;;;3.50;0.47;;;12.20;99.90;;;;;;6209886;23;20272;-87
2021/11/08 12:20:09;;;;;;;0.27;0.27;;;12.20;99.90;;;;;;6209772;23;20197;-88
2021/11/08 12:22:35;;;;;;;0.47;0.30;;;12.20;99.90;;;;;;6236699;22;20196;-86
2021/11/08 12:25:13;;;;;;;0.20;0.20;;;12.20;99.90;;;;;;6210886;22;20193;-85
2021/11/08 12:27:43;;;;;;;2.30;0.27;;;12.20;99.90;;;;;;6209427;23;20149;-85
2021/11/08 12:30:17;;;;;;;0.70;0.60;;;12.20;99.90;;;;;;6207706;23;20237;-85
2021/11/08 12:32:49;;;;;;;2.43;0.50;;;12.20;99.90;;;;;;6207722;23;20380;-85
2021/11/08 12:35:28;;;;;;;0.87;0.47;;;12.20;99.90;;;;;;6235456;22;20648;-85
2021/11/08 12:37:54;;;;;;;2.13;0.57;;;12.00;99.90;;;;;;6257165;22;20201;-85
2021/11/08 12:40:27;;;;;;;0.40;0.27;;;11.90;99.90;;;;;;6205747;22;20178;-86
2021/11/08 12:42:54;;;;;;;0.80;0.40;;;11.70;99.90;;;;;;6208879;22;20145;-86
2021/11/08 12:45:37;;;;;;;1.13;0.10;;;11.50;99.90;;;;;;6209181;23;20177;-86
2021/11/08 12:48:03;;;;;;;10.07;1.23;;;11.30;99.90;;;;;;6234858;22;20197;-84
2021/11/08 12:50:52;;;;;;;1.70;0.90;;;11.30;99.90;;;;;;6209595;23;20272;-84
2021/11/08 12:53:31;;;;;;;1.00;0.70;;;11.20;99.90;;;;;;6209133;23;20197;-84
2021/11/08 12:56:01;;;;;;;0.77;0.40;;;11.20;99.90;;;;;;6209098;23;20201;-85
2021/11/08 12:58:43;;;;;;;0.47;0.43;;;11.30;99.90;;;;;;6209304;23;20193;-84
2021/11/08 13:01:14;;;;;;;0.57;0.30;;;11.30;99.90;;;;;;6214533;23;20679;-85
2021/11/08 13:03:44;;;;;;;7.37;0.73;;;11.20;99.90;;;;;;6221151;23;20188;-85
2021/11/08 13:06:23;;;;;;;4.97;1.07;;;11.20;99.90;;;;;;6171824;23;20197;-85
2021/11/08 13:08:49;;;;;;;8.10;0.83;;;11.20;99.90;;;;;;6220395;23;20205;-85
2021/11/08 13:11:15;;;;;;;3.80;0.70;;;11.20;99.90;;;;;;6214147;23;20256;-84
2021/11/08 13:13:54;;;;;;;1.97;0.30;;;11.30;99.90;;;;;;6158478;23;20239;-85
2021/11/08 13:16:36;;;;;;;3.43;0.40;;;11.40;99.90;;;;;;6186301;23;20201;-84
2021/11/08 13:19:14;;;;;;;1.13;0.27;;;11.40;99.90;;;;;;6208225;22;20150;-83
2021/11/08 13:21:40;;;;;;;1.70;0.63;;;11.40;99.90;;;;;;6235167;23;20197;-84
2021/11/08 13:24:07;;;;;;;1.00;0.90;;;11.50;99.90;;;;;;6207843;23;20201;-86
2021/11/08 13:26:34;;;;;;;3.10;0.63;;;11.60;99.90;;;;;;6207268;23;20282;-84
2021/11/08 13:29:01;;;;;;;2.23;0.40;;;11.70;99.90;;;;;;6182993;23;20197;-84
2021/11/08 13:31:28;;;;;;;2.00;0.30;;;11.70;99.90;;;;;;6209597;23;20265;-87
2021/11/08 13:33:56;;;;;;;2.63;1.30;;;11.80;99.90;;;;;;6210322;22;20157;-87
2021/11/08 13:36:22;;;;;;;1.03;0.77;;;11.80;99.90;;;;;;6237688;23;20157;-87
2021/11/08 13:39:00;;;;;;;0.30;0.30;;;11.80;99.90;;;;;;6159376;23;20215;-87
2021/11/08 13:41:32;;;;;;;1.17;1.07;;;11.80;99.90;;;;;;6184848;23;20201;-86
2021/11/08 13:44:03;;;;;;;0.60;0.47;;;11.90;99.90;;;;;;6210159;23;20280;-86
2021/11/08 13:46:35;;;;;;;1.27;0.50;;;11.80;99.90;;;;;;6236037;22;20201;-86
2021/11/08 13:49:13;;;;;;;0.70;0.50;;;11.70;99.90;;;;;;6209334;22;20146;-86
2021/11/08 13:51:48;;;;;;;1.27;0.40;;;11.80;99.90;;;;;;6210518;23;20152;-87
2021/11/08 13:54:19;;;;;;;0.23;0.23;;;11.90;99.90;;;;;;6238086;23;20508;-86
2021/11/08 13:57:18;;;;;;;0.40;0.40;;;11.90;99.90;;;;;;6212156;23;20198;-87
2021/11/08 13:59:46;;;;;;;0.77;0.77;;;11.80;99.90;;;;;;6160674;23;20208;-86
2021/11/08 14:02:31;;;;;;;2.43;1.53;;;11.70;99.90;;;;;;6238861;22;20193;-84
2021/11/08 14:04:59;;;;;;;5.00;0.90;;;11.50;99.90;;;;;;6187381;23;20197;-86
2021/11/08 14:07:26;;;;;;;4.07;1.17;;;11.50;99.90;;;;;;6188660;23;20292;-86
2021/11/08 14:09:53;;;;;;;0.57;0.53;;;11.50;99.90;;;;;;6189981;22;20157;-87
2021/11/08 14:12:22;;;;;;;5.23;0.60;;;11.60;99.90;;;;;;6190760;23;20157;-88
2021/11/08 14:14:51;;;;;;;5.80;0.80;;;11.50;99.90;;;;;;6213276;23;20208;-87
2021/11/08 14:17:19;;;;;;;1.60;0.90;;;11.60;99.90;;;;;;6213450;23;20943;-86
2021/11/08 14:19:51;;;;;;;0.50;0.50;;;11.60;99.90;;;;;;6213504;23;20197;-88
2021/11/08 14:22:17;;;;;;;0.50;0.50;;;11.60;99.90;;;;;;6214004;23;20595;-88
2021/11/08 14:24:45;;;;;;;3.07;0.73;;;11.60;99.90;;;;;;6238948;23;20212;-86
2021/11/08 14:27:12;;;;;;;1.30;0.70;;;11.50;99.90;;;;;;6240661;23;20203;-86
2021/11/08 14:29:38;;;;;;;1.23;1.13;;;11.40;99.90;;;;;;6212457;23;20961;-86
2021/11/08 14:32:07;;;;;;;0.63;0.63;;;11.30;99.90;;;;;;6188257;23;20272;-88
2021/11/08 14:34:38;;;;;;;2.00;0.57;;;11.30;99.90;;;;;;6212753;23;20272;-86
2021/11/08 14:37:10;;;;;;;6.67;1.37;;;11.30;99.90;;;;;;6212273;23;20194;-87
2021/11/08 14:39:45;;;;;;;0.10;0.10;;;11.30;99.90;;;;;;6211892;23;20213;-88
2021/11/08 14:42:12;;;;;;;0.30;0.20;;;11.20;99.90;;;;;;6209169;23;20181;-86
2021/11/08 14:44:45;;;;;;;0.90;0.80;;;11.20;99.90;;;;;;6209444;23;20208;-89